sensor_id;sensor_type;location;lat;lon;timestamp;P1;durP1;ratioP1;P2;durP2;ratioP2
63193;SDS011;49289;51.670;5.624;2022-09-30T00:00:55;18.20;;;13.70;;
63193;SDS011;49289;51.670;5.624;2022-09-30T00:02:42;17.20;;;13.50;;
63193;SDS011;49289;51.670;5.624;2022-09-30T00:04:29;16.50;;;13.50;;
63193;SDS011;49289;51.670;5.624;2022-09-30T00:06:16;17.70;;;13.40;;
63193;SDS011;49289;51.670;5.624;2022-09-30T00:08:03;17.30;;;13.70;;
63193;SDS011;49289;51.670;5.624;2022-09-30T00:09:51;17.30;;;13.50;;
63193;SDS011;49289;51.670;5.624;2022-09-30T00:11:39;17.10;;;13.40;;
63193;SDS011;49289;51.670;5.624;2022-09-30T00:13:27;17.40;;;12.60;;
63193;SDS011;49289;51.670;5.624;2022-09-30T00:15:15;15.30;;;12.80;;
63193;SDS011;49289;51.670;5.624;2022-09-30T00:17:03;14.50;;;12.30;;
63193;SDS011;49289;51.670;5.624;2022-09-30T00:18:53;15.70;;;12.30;;
63193;SDS011;49289;51.670;5.624;2022-09-30T00:20:39;15.00;;;11.70;;
63193;SDS011;49289;51.670;5.624;2022-09-30T00:22:28;14.20;;;11.30;;
63193;SDS011;49289;51.670;5.624;2022-09-30T00:24:15;13.80;;;11.10;;
63193;SDS011;49289;51.670;5.624;2022-09-30T00:26:05;14.30;;;11.20;;
63193;SDS011;49289;51.670;5.624;2022-09-30T00:27:53;14.70;;;11.00;;
63193;SDS011;49289;51.670;5.624;2022-09-30T00:29:42;13.50;;;11.50;;
63193;SDS011;49289;51.670;5.624;2022-09-30T00:31:32;14.20;;;12.20;;
63193;SDS011;49289;51.670;5.624;2022-09-30T00:33:19;17.50;;;12.90;;
63193;SDS011;49289;51.670;5.624;2022-09-30T00:35:07;16.70;;;12.60;;
63193;SDS011;49289;51.670;5.624;2022-09-30T00:36:54;17.30;;;13.00;;
63193;SDS011;49289;51.670;5.624;2022-09-30T00:38:42;17.70;;;12.50;;
63193;SDS011;49289;51.670;5.624;2022-09-30T00:40:30;17.80;;;13.20;;
63193;SDS011;49289;51.670;5.624;2022-09-30T00:42:17;15.70;;;12.10;;
63193;SDS011;49289;51.670;5.624;2022-09-30T00:43:49;18.10;;;13.00;;
63193;SDS011;49289;51.670;5.624;2022-09-30T00:45:36;15.50;;;11.70;;
63193;SDS011;49289;51.670;5.624;2022-09-30T00:49:31;15.90;;;12.40;;
63193;SDS011;49289;51.670;5.624;2022-09-30T00:51:19;17.40;;;13.00;;
63193;SDS011;49289;51.670;5.624;2022-09-30T00:53:12;16.70;;;13.00;;
63193;SDS011;49289;51.670;5.624;2022-09-30T00:55:00;16.50;;;12.60;;
63193;SDS011;49289;51.670;5.624;2022-09-30T00:56:48;16.60;;;12.70;;
63193;SDS011;49289;51.670;5.624;2022-09-30T00:58:37;15.70;;;12.40;;
63193;SDS011;49289;51.670;5.624;2022-09-30T01:00:24;16.20;;;12.80;;
63193;SDS011;49289;51.670;5.624;2022-09-30T01:02:12;16.70;;;12.80;;
63193;SDS011;49289;51.670;5.624;2022-09-30T01:04:02;16.10;;;12.20;;
63193;SDS011;49289;51.670;5.624;2022-09-30T01:05:48;14.50;;;12.00;;
63193;SDS011;49289;51.670;5.624;2022-09-30T01:07:35;16.40;;;12.40;;
63193;SDS011;49289;51.670;5.624;2022-09-30T01:09:23;15.40;;;12.00;;
63193;SDS011;49289;51.670;5.624;2022-09-30T01:11:11;14.00;;;11.80;;
63193;SDS011;49289;51.670;5.624;2022-09-30T01:13:02;16.00;;;12.60;;
63193;SDS011;49289;51.670;5.624;2022-09-30T01:14:50;16.00;;;12.50;;
63193;SDS011;49289;51.670;5.624;2022-09-30T01:16:44;16.10;;;12.00;;
63193;SDS011;49289;51.670;5.624;2022-09-30T01:18:35;15.00;;;12.50;;
63193;SDS011;49289;51.670;5.624;2022-09-30T01:20:44;16.30;;;12.90;;
63193;SDS011;49289;51.670;5.624;2022-09-30T01:22:38;16.60;;;13.00;;
63193;SDS011;49289;51.670;5.624;2022-09-30T01:27:02;16.40;;;12.40;;
63193;SDS011;49289;51.670;5.624;2022-09-30T01:29:13;18.80;;;12.70;;
63193;SDS011;49289;51.670;5.624;2022-09-30T01:31:16;16.60;;;13.40;;
63193;SDS011;49289;51.670;5.624;2022-09-30T01:33:09;16.40;;;12.60;;
63193;SDS011;49289;51.670;5.624;2022-09-30T01:35:05;16.50;;;13.00;;
63193;SDS011;49289;51.670;5.624;2022-09-30T01:36:57;18.60;;;13.30;;
63193;SDS011;49289;51.670;5.624;2022-09-30T01:38:47;15.80;;;12.30;;
63193;SDS011;49289;51.670;5.624;2022-09-30T01:40:35;16.60;;;13.10;;
63193;SDS011;49289;51.670;5.624;2022-09-30T01:42:24;16.90;;;13.10;;
63193;SDS011;49289;51.670;5.624;2022-09-30T01:44:11;16.20;;;13.60;;
63193;SDS011;49289;51.670;5.624;2022-09-30T01:46:01;16.80;;;13.40;;
63193;SDS011;49289;51.670;5.624;2022-09-30T01:47:49;18.30;;;13.70;;
63193;SDS011;49289;51.670;5.624;2022-09-30T01:49:38;16.90;;;13.30;;
63193;SDS011;49289;51.670;5.624;2022-09-30T01:51:26;17.30;;;13.00;;
63193;SDS011;49289;51.670;5.624;2022-09-30T01:53:13;16.00;;;12.50;;
63193;SDS011;49289;51.670;5.624;2022-09-30T01:55:02;16.90;;;13.00;;
63193;SDS011;49289;51.670;5.624;2022-09-30T01:56:50;16.50;;;13.10;;
63193;SDS011;49289;51.670;5.624;2022-09-30T01:58:38;15.70;;;12.10;;
63193;SDS011;49289;51.670;5.624;2022-09-30T02:00:25;17.00;;;12.90;;
63193;SDS011;49289;51.670;5.624;2022-09-30T02:02:15;17.70;;;13.10;;
63193;SDS011;49289;51.670;5.624;2022-09-30T02:04:02;16.60;;;12.90;;
63193;SDS011;49289;51.670;5.624;2022-09-30T02:05:50;15.60;;;12.60;;
63193;SDS011;49289;51.670;5.624;2022-09-30T02:07:38;16.30;;;12.80;;
63193;SDS011;49289;51.670;5.624;2022-09-30T02:09:26;16.30;;;12.70;;
63193;SDS011;49289;51.670;5.624;2022-09-30T02:11:13;17.90;;;12.80;;
63193;SDS011;49289;51.670;5.624;2022-09-30T02:13:01;19.40;;;13.30;;
63193;SDS011;49289;51.670;5.624;2022-09-30T02:14:49;17.70;;;13.60;;
63193;SDS011;49289;51.670;5.624;2022-09-30T02:16:37;15.30;;;13.00;;
63193;SDS011;49289;51.670;5.624;2022-09-30T02:18:25;17.00;;;12.90;;
63193;SDS011;49289;51.670;5.624;2022-09-30T02:20:13;17.30;;;13.40;;
63193;SDS011;49289;51.670;5.624;2022-09-30T02:22:00;17.50;;;12.80;;
63193;SDS011;49289;51.670;5.624;2022-09-30T02:23:48;17.30;;;12.70;;
63193;SDS011;49289;51.670;5.624;2022-09-30T02:25:36;16.10;;;12.40;;
63193;SDS011;49289;51.670;5.624;2022-09-30T02:27:24;14.30;;;11.60;;
63193;SDS011;49289;51.670;5.624;2022-09-30T02:29:14;14.50;;;11.50;;
63193;SDS011;49289;51.670;5.624;2022-09-30T02:31:00;14.50;;;11.50;;
63193;SDS011;49289;51.670;5.624;2022-09-30T02:32:47;16.80;;;11.90;;
63193;SDS011;49289;51.670;5.624;2022-09-30T02:34:34;15.50;;;11.80;;
63193;SDS011;49289;51.670;5.624;2022-09-30T02:36:22;15.90;;;12.30;;
63193;SDS011;49289;51.670;5.624;2022-09-30T02:38:11;15.80;;;12.00;;
63193;SDS011;49289;51.670;5.624;2022-09-30T02:39:59;17.50;;;12.80;;
63193;SDS011;49289;51.670;5.624;2022-09-30T02:41:47;15.00;;;11.70;;
63193;SDS011;49289;51.670;5.624;2022-09-30T02:43:35;14.20;;;11.40;;
63193;SDS011;49289;51.670;5.624;2022-09-30T02:45:23;14.30;;;11.30;;
63193;SDS011;49289;51.670;5.624;2022-09-30T02:47:15;14.20;;;11.50;;
63193;SDS011;49289;51.670;5.624;2022-09-30T02:49:04;16.00;;;11.20;;
63193;SDS011;49289;51.670;5.624;2022-09-30T02:50:52;14.50;;;11.10;;
63193;SDS011;49289;51.670;5.624;2022-09-30T02:52:41;13.70;;;11.50;;
63193;SDS011;49289;51.670;5.624;2022-09-30T02:54:31;15.60;;;11.40;;
63193;SDS011;49289;51.670;5.624;2022-09-30T02:56:22;14.20;;;11.20;;
63193;SDS011;49289;51.670;5.624;2022-09-30T02:58:10;15.00;;;11.40;;
63193;SDS011;49289;51.670;5.624;2022-09-30T02:59:57;15.20;;;11.40;;
63193;SDS011;49289;51.670;5.624;2022-09-30T03:01:44;14.40;;;11.60;;
63193;SDS011;49289;51.670;5.624;2022-09-30T03:03:32;14.10;;;11.70;;
63193;SDS011;49289;51.670;5.624;2022-09-30T03:05:18;15.20;;;11.80;;
63193;SDS011;49289;51.670;5.624;2022-09-30T03:07:05;15.40;;;11.10;;
63193;SDS011;49289;51.670;5.624;2022-09-30T03:08:52;14.40;;;10.90;;
63193;SDS011;49289;51.670;5.624;2022-09-30T03:10:39;13.90;;;10.60;;
63193;SDS011;49289;51.670;5.624;2022-09-30T03:12:28;15.00;;;11.50;;
63193;SDS011;49289;51.670;5.624;2022-09-30T03:14:26;13.00;;;10.80;;
63193;SDS011;49289;51.670;5.624;2022-09-30T03:16:26;14.60;;;11.20;;
63193;SDS011;49289;51.670;5.624;2022-09-30T03:18:18;15.60;;;11.10;;
63193;SDS011;49289;51.670;5.624;2022-09-30T03:20:16;12.70;;;10.70;;
63193;SDS011;49289;51.670;5.624;2022-09-30T03:22:09;17.20;;;11.20;;
63193;SDS011;49289;51.670;5.624;2022-09-30T03:24:03;12.20;;;10.50;;
63193;SDS011;49289;51.670;5.624;2022-09-30T03:26:01;13.90;;;10.80;;
63193;SDS011;49289;51.670;5.624;2022-09-30T03:27:51;12.80;;;10.60;;
63193;SDS011;49289;51.670;5.624;2022-09-30T03:29:40;12.70;;;10.60;;
63193;SDS011;49289;51.670;5.624;2022-09-30T03:31:31;13.10;;;10.50;;
63193;SDS011;49289;51.670;5.624;2022-09-30T03:33:18;15.30;;;10.70;;
63193;SDS011;49289;51.670;5.624;2022-09-30T03:35:08;13.40;;;11.20;;
63193;SDS011;49289;51.670;5.624;2022-09-30T03:36:56;11.80;;;10.20;;
63193;SDS011;49289;51.670;5.624;2022-09-30T03:38:45;13.70;;;10.30;;
63193;SDS011;49289;51.670;5.624;2022-09-30T03:40:34;15.40;;;11.00;;
63193;SDS011;49289;51.670;5.624;2022-09-30T03:42:21;11.60;;;10.10;;
63193;SDS011;49289;51.670;5.624;2022-09-30T03:44:08;13.40;;;10.80;;
63193;SDS011;49289;51.670;5.624;2022-09-30T03:45:56;13.60;;;11.30;;
63193;SDS011;49289;51.670;5.624;2022-09-30T03:47:45;14.40;;;11.20;;
63193;SDS011;49289;51.670;5.624;2022-09-30T03:49:33;14.80;;;11.40;;
63193;SDS011;49289;51.670;5.624;2022-09-30T03:51:21;13.30;;;11.30;;
63193;SDS011;49289;51.670;5.624;2022-09-30T03:53:09;14.70;;;10.60;;
63193;SDS011;49289;51.670;5.624;2022-09-30T03:54:57;13.10;;;10.70;;
63193;SDS011;49289;51.670;5.624;2022-09-30T03:56:44;14.40;;;10.70;;
63193;SDS011;49289;51.670;5.624;2022-09-30T03:58:33;15.80;;;10.70;;
63193;SDS011;49289;51.670;5.624;2022-09-30T04:00:21;13.70;;;10.50;;
63193;SDS011;49289;51.670;5.624;2022-09-30T04:02:09;12.60;;;10.30;;
63193;SDS011;49289;51.670;5.624;2022-09-30T04:03:57;11.80;;;10.10;;
63193;SDS011;49289;51.670;5.624;2022-09-30T04:05:46;12.50;;;10.40;;
63193;SDS011;49289;51.670;5.624;2022-09-30T04:07:34;13.80;;;10.30;;
63193;SDS011;49289;51.670;5.624;2022-09-30T04:09:22;14.00;;;11.30;;
63193;SDS011;49289;51.670;5.624;2022-09-30T04:11:10;12.80;;;10.70;;
63193;SDS011;49289;51.670;5.624;2022-09-30T04:12:57;12.90;;;11.10;;
63193;SDS011;49289;51.670;5.624;2022-09-30T04:14:46;14.90;;;11.00;;
63193;SDS011;49289;51.670;5.624;2022-09-30T04:16:33;14.00;;;11.30;;
63193;SDS011;49289;51.670;5.624;2022-09-30T04:18:21;14.30;;;11.30;;
63193;SDS011;49289;51.670;5.624;2022-09-30T04:20:11;12.10;;;10.30;;
63193;SDS011;49289;51.670;5.624;2022-09-30T04:21:59;12.50;;;10.80;;
63193;SDS011;49289;51.670;5.624;2022-09-30T04:23:47;13.50;;;11.10;;
63193;SDS011;49289;51.670;5.624;2022-09-30T04:25:35;13.10;;;11.00;;
63193;SDS011;49289;51.670;5.624;2022-09-30T04:27:23;16.20;;;11.50;;
63193;SDS011;49289;51.670;5.624;2022-09-30T04:29:11;14.60;;;11.80;;
63193;SDS011;49289;51.670;5.624;2022-09-30T04:30:59;13.30;;;11.20;;
63193;SDS011;49289;51.670;5.624;2022-09-30T04:32:47;15.10;;;10.90;;
63193;SDS011;49289;51.670;5.624;2022-09-30T04:34:36;12.40;;;10.70;;
63193;SDS011;49289;51.670;5.624;2022-09-30T04:36:24;13.30;;;11.40;;
63193;SDS011;49289;51.670;5.624;2022-09-30T04:38:12;13.50;;;11.10;;
63193;SDS011;49289;51.670;5.624;2022-09-30T04:39:45;14.20;;;11.40;;
63193;SDS011;49289;51.670;5.624;2022-09-30T04:41:33;14.30;;;11.20;;
63193;SDS011;49289;51.670;5.624;2022-09-30T04:43:21;12.40;;;10.90;;
63193;SDS011;49289;51.670;5.624;2022-09-30T04:45:08;14.70;;;10.70;;
63193;SDS011;49289;51.670;5.624;2022-09-30T04:46:56;13.00;;;11.00;;
63193;SDS011;49289;51.670;5.624;2022-09-30T04:48:44;13.10;;;10.40;;
63193;SDS011;49289;51.670;5.624;2022-09-30T04:50:31;12.50;;;10.50;;
63193;SDS011;49289;51.670;5.624;2022-09-30T04:52:18;13.10;;;10.90;;
63193;SDS011;49289;51.670;5.624;2022-09-30T04:54:05;12.70;;;11.00;;
63193;SDS011;49289;51.670;5.624;2022-09-30T04:55:56;13.50;;;11.30;;
63193;SDS011;49289;51.670;5.624;2022-09-30T04:57:43;15.60;;;11.30;;
63193;SDS011;49289;51.670;5.624;2022-09-30T04:59:30;14.40;;;12.00;;
63193;SDS011;49289;51.670;5.624;2022-09-30T05:01:17;14.20;;;11.60;;
63193;SDS011;49289;51.670;5.624;2022-09-30T05:03:04;16.70;;;11.70;;
63193;SDS011;49289;51.670;5.624;2022-09-30T05:04:51;12.60;;;10.60;;
63193;SDS011;49289;51.670;5.624;2022-09-30T05:06:38;13.80;;;10.10;;
63193;SDS011;49289;51.670;5.624;2022-09-30T05:08:25;12.90;;;10.70;;
63193;SDS011;49289;51.670;5.624;2022-09-30T05:10:13;13.30;;;10.90;;
63193;SDS011;49289;51.670;5.624;2022-09-30T05:12:01;14.40;;;11.60;;
63193;SDS011;49289;51.670;5.624;2022-09-30T05:13:48;15.30;;;11.50;;
63193;SDS011;49289;51.670;5.624;2022-09-30T05:15:37;13.80;;;11.40;;
63193;SDS011;49289;51.670;5.624;2022-09-30T05:17:24;14.70;;;10.90;;
63193;SDS011;49289;51.670;5.624;2022-09-30T05:19:12;14.70;;;11.40;;
63193;SDS011;49289;51.670;5.624;2022-09-30T05:21:00;16.20;;;11.90;;
63193;SDS011;49289;51.670;5.624;2022-09-30T05:22:48;14.90;;;11.60;;
63193;SDS011;49289;51.670;5.624;2022-09-30T05:24:39;14.30;;;11.70;;
63193;SDS011;49289;51.670;5.624;2022-09-30T05:26:27;13.30;;;10.90;;
63193;SDS011;49289;51.670;5.624;2022-09-30T05:28:15;14.00;;;10.70;;
63193;SDS011;49289;51.670;5.624;2022-09-30T05:30:03;13.40;;;11.00;;
63193;SDS011;49289;51.670;5.624;2022-09-30T05:31:50;13.70;;;10.40;;
63193;SDS011;49289;51.670;5.624;2022-09-30T05:33:37;13.90;;;10.40;;
63193;SDS011;49289;51.670;5.624;2022-09-30T05:35:24;13.80;;;10.90;;
63193;SDS011;49289;51.670;5.624;2022-09-30T05:37:11;13.30;;;10.50;;
63193;SDS011;49289;51.670;5.624;2022-09-30T05:38:58;14.20;;;11.10;;
63193;SDS011;49289;51.670;5.624;2022-09-30T05:40:45;13.30;;;10.90;;
63193;SDS011;49289;51.670;5.624;2022-09-30T05:42:32;15.00;;;11.40;;
63193;SDS011;49289;51.670;5.624;2022-09-30T05:44:19;16.00;;;11.30;;
63193;SDS011;49289;51.670;5.624;2022-09-30T05:46:06;15.20;;;11.70;;
63193;SDS011;49289;51.670;5.624;2022-09-30T05:47:55;14.70;;;11.50;;
63193;SDS011;49289;51.670;5.624;2022-09-30T05:49:42;16.60;;;12.60;;
63193;SDS011;49289;51.670;5.624;2022-09-30T05:51:30;14.40;;;11.30;;
63193;SDS011;49289;51.670;5.624;2022-09-30T05:53:18;12.80;;;11.10;;
63193;SDS011;49289;51.670;5.624;2022-09-30T05:54:50;18.70;;;12.00;;
63193;SDS011;49289;51.670;5.624;2022-09-30T05:56:37;16.10;;;11.80;;
63193;SDS011;49289;51.670;5.624;2022-09-30T05:58:24;14.20;;;11.10;;
63193;SDS011;49289;51.670;5.624;2022-09-30T06:00:12;14.30;;;11.70;;
63193;SDS011;49289;51.670;5.624;2022-09-30T06:02:00;16.70;;;11.30;;
63193;SDS011;49289;51.670;5.624;2022-09-30T06:03:48;16.10;;;12.40;;
63193;SDS011;49289;51.670;5.624;2022-09-30T06:05:36;13.40;;;11.00;;
63193;SDS011;49289;51.670;5.624;2022-09-30T06:07:24;15.10;;;11.40;;
63193;SDS011;49289;51.670;5.624;2022-09-30T06:09:12;16.80;;;12.30;;
63193;SDS011;49289;51.670;5.624;2022-09-30T06:11:00;15.40;;;11.80;;
63193;SDS011;49289;51.670;5.624;2022-09-30T06:12:48;15.10;;;12.30;;
63193;SDS011;49289;51.670;5.624;2022-09-30T06:14:36;17.30;;;12.20;;
63193;SDS011;49289;51.670;5.624;2022-09-30T06:16:24;15.10;;;12.40;;
63193;SDS011;49289;51.670;5.624;2022-09-30T06:18:12;16.20;;;12.50;;
63193;SDS011;49289;51.670;5.624;2022-09-30T06:19:59;16.00;;;12.50;;
63193;SDS011;49289;51.670;5.624;2022-09-30T06:21:46;16.40;;;12.60;;
63193;SDS011;49289;51.670;5.624;2022-09-30T06:23:34;16.10;;;12.70;;
63193;SDS011;49289;51.670;5.624;2022-09-30T06:25:20;15.30;;;12.00;;
63193;SDS011;49289;51.670;5.624;2022-09-30T06:27:08;15.70;;;11.30;;
63193;SDS011;49289;51.670;5.624;2022-09-30T06:28:56;17.20;;;12.70;;
63193;SDS011;49289;51.670;5.624;2022-09-30T06:30:44;16.50;;;12.90;;
63193;SDS011;49289;51.670;5.624;2022-09-30T06:32:31;17.70;;;12.00;;
63193;SDS011;49289;51.670;5.624;2022-09-30T06:34:19;16.20;;;12.30;;
63193;SDS011;49289;51.670;5.624;2022-09-30T06:36:06;15.70;;;12.20;;
63193;SDS011;49289;51.670;5.624;2022-09-30T06:37:55;16.30;;;12.50;;
63193;SDS011;49289;51.670;5.624;2022-09-30T06:39:42;15.40;;;12.70;;
63193;SDS011;49289;51.670;5.624;2022-09-30T06:41:29;18.00;;;12.60;;
63193;SDS011;49289;51.670;5.624;2022-09-30T06:43:16;20.30;;;13.60;;
63193;SDS011;49289;51.670;5.624;2022-09-30T06:45:03;15.40;;;12.30;;
63193;SDS011;49289;51.670;5.624;2022-09-30T06:46:51;16.50;;;13.20;;
63193;SDS011;49289;51.670;5.624;2022-09-30T06:48:38;18.60;;;14.10;;
63193;SDS011;49289;51.670;5.624;2022-09-30T06:50:10;18.80;;;13.20;;
63193;SDS011;49289;51.670;5.624;2022-09-30T06:51:58;16.50;;;13.40;;
63193;SDS011;49289;51.670;5.624;2022-09-30T06:53:47;19.00;;;12.70;;
63193;SDS011;49289;51.670;5.624;2022-09-30T06:55:35;18.20;;;12.80;;
63193;SDS011;49289;51.670;5.624;2022-09-30T06:57:24;16.40;;;12.50;;
63193;SDS011;49289;51.670;5.624;2022-09-30T06:59:11;17.40;;;13.50;;
63193;SDS011;49289;51.670;5.624;2022-09-30T07:01:03;19.50;;;13.20;;
63193;SDS011;49289;51.670;5.624;2022-09-30T07:02:50;22.30;;;15.50;;
63193;SDS011;49289;51.670;5.624;2022-09-30T07:04:38;23.50;;;15.60;;
63193;SDS011;49289;51.670;5.624;2022-09-30T07:06:25;20.40;;;15.90;;
63193;SDS011;49289;51.670;5.624;2022-09-30T07:08:13;20.70;;;16.10;;
63193;SDS011;49289;51.670;5.624;2022-09-30T07:10:00;19.60;;;15.50;;
63193;SDS011;49289;51.670;5.624;2022-09-30T07:11:47;21.30;;;16.50;;
63193;SDS011;49289;51.670;5.624;2022-09-30T07:13:34;21.00;;;16.30;;
63193;SDS011;49289;51.670;5.624;2022-09-30T07:15:21;22.20;;;16.20;;
63193;SDS011;49289;51.670;5.624;2022-09-30T07:17:08;21.00;;;15.70;;
63193;SDS011;49289;51.670;5.624;2022-09-30T07:18:55;22.50;;;16.20;;
63193;SDS011;49289;51.670;5.624;2022-09-30T07:20:46;22.90;;;16.80;;
63193;SDS011;49289;51.670;5.624;2022-09-30T07:22:32;21.10;;;16.30;;
63193;SDS011;49289;51.670;5.624;2022-09-30T07:24:19;22.50;;;16.80;;
63193;SDS011;49289;51.670;5.624;2022-09-30T07:26:07;22.30;;;17.10;;
63193;SDS011;49289;51.670;5.624;2022-09-30T07:27:55;24.50;;;17.90;;
63193;SDS011;49289;51.670;5.624;2022-09-30T07:29:42;22.80;;;17.20;;
63193;SDS011;49289;51.670;5.624;2022-09-30T07:31:29;24.60;;;18.40;;
63193;SDS011;49289;51.670;5.624;2022-09-30T07:33:16;25.60;;;17.90;;
63193;SDS011;49289;51.670;5.624;2022-09-30T07:35:03;23.00;;;18.30;;
63193;SDS011;49289;51.670;5.624;2022-09-30T07:36:50;26.30;;;18.00;;
63193;SDS011;49289;51.670;5.624;2022-09-30T07:38:38;22.40;;;18.40;;
63193;SDS011;49289;51.670;5.624;2022-09-30T07:40:24;25.60;;;18.00;;
63193;SDS011;49289;51.670;5.624;2022-09-30T07:42:12;25.90;;;19.00;;
63193;SDS011;49289;51.670;5.624;2022-09-30T07:43:58;23.20;;;18.10;;
63193;SDS011;49289;51.670;5.624;2022-09-30T07:45:46;23.30;;;17.80;;
63193;SDS011;49289;51.670;5.624;2022-09-30T07:47:34;23.00;;;18.20;;
63193;SDS011;49289;51.670;5.624;2022-09-30T07:49:22;25.20;;;17.90;;
63193;SDS011;49289;51.670;5.624;2022-09-30T07:51:11;23.60;;;17.30;;
63193;SDS011;49289;51.670;5.624;2022-09-30T07:52:59;25.00;;;18.00;;
63193;SDS011;49289;51.670;5.624;2022-09-30T07:54:47;24.20;;;18.60;;
63193;SDS011;49289;51.670;5.624;2022-09-30T07:56:35;22.70;;;19.10;;
63193;SDS011;49289;51.670;5.624;2022-09-30T07:58:23;26.60;;;19.50;;
63193;SDS011;49289;51.670;5.624;2022-09-30T08:00:12;25.40;;;19.60;;
63193;SDS011;49289;51.670;5.624;2022-09-30T08:02:00;27.60;;;20.80;;
63193;SDS011;49289;51.670;5.624;2022-09-30T08:03:51;24.70;;;18.80;;
63193;SDS011;49289;51.670;5.624;2022-09-30T08:05:35;27.90;;;20.30;;
63193;SDS011;49289;51.670;5.624;2022-09-30T08:07:24;24.90;;;19.20;;
63193;SDS011;49289;51.670;5.624;2022-09-30T08:09:13;25.40;;;19.60;;
63193;SDS011;49289;51.670;5.624;2022-09-30T08:11:03;25.50;;;19.90;;
63193;SDS011;49289;51.670;5.624;2022-09-30T08:12:51;23.40;;;19.20;;
63193;SDS011;49289;51.670;5.624;2022-09-30T08:14:39;24.60;;;19.90;;
63193;SDS011;49289;51.670;5.624;2022-09-30T08:16:26;25.00;;;19.20;;
63193;SDS011;49289;51.670;5.624;2022-09-30T08:18:13;23.90;;;19.60;;
63193;SDS011;49289;51.670;5.624;2022-09-30T08:20:00;26.20;;;20.30;;
63193;SDS011;49289;51.670;5.624;2022-09-30T08:21:47;24.00;;;18.80;;
63193;SDS011;49289;51.670;5.624;2022-09-30T08:23:34;24.40;;;19.70;;
63193;SDS011;49289;51.670;5.624;2022-09-30T08:25:21;22.80;;;19.00;;
63193;SDS011;49289;51.670;5.624;2022-09-30T08:27:08;24.10;;;19.20;;
63193;SDS011;49289;51.670;5.624;2022-09-30T08:28:55;23.50;;;18.80;;
63193;SDS011;49289;51.670;5.624;2022-09-30T08:30:42;21.80;;;18.00;;
63193;SDS011;49289;51.670;5.624;2022-09-30T08:32:29;22.60;;;18.30;;
63193;SDS011;49289;51.670;5.624;2022-09-30T08:34:16;21.90;;;17.30;;
63193;SDS011;49289;51.670;5.624;2022-09-30T08:36:07;24.90;;;18.70;;
63193;SDS011;49289;51.670;5.624;2022-09-30T08:37:53;22.20;;;18.80;;
63193;SDS011;49289;51.670;5.624;2022-09-30T08:39:40;23.00;;;17.40;;
63193;SDS011;49289;51.670;5.624;2022-09-30T08:41:34;22.20;;;17.40;;
63193;SDS011;49289;51.670;5.624;2022-09-30T08:43:16;21.20;;;16.50;;
63193;SDS011;49289;51.670;5.624;2022-09-30T08:45:06;18.90;;;16.20;;
63193;SDS011;49289;51.670;5.624;2022-09-30T08:46:56;20.00;;;16.60;;
63193;SDS011;49289;51.670;5.624;2022-09-30T08:48:44;18.90;;;15.90;;
63193;SDS011;49289;51.670;5.624;2022-09-30T08:50:33;19.50;;;16.30;;
63193;SDS011;49289;51.670;5.624;2022-09-30T08:52:21;20.40;;;17.10;;
63193;SDS011;49289;51.670;5.624;2022-09-30T08:53:52;22.80;;;15.40;;
63193;SDS011;49289;51.670;5.624;2022-09-30T08:55:41;17.10;;;15.20;;
63193;SDS011;49289;51.670;5.624;2022-09-30T08:57:35;18.60;;;15.90;;
63193;SDS011;49289;51.670;5.624;2022-09-30T08:59:20;22.40;;;16.00;;
63193;SDS011;49289;51.670;5.624;2022-09-30T09:01:09;19.80;;;16.40;;
63193;SDS011;49289;51.670;5.624;2022-09-30T09:02:56;19.80;;;15.40;;
63193;SDS011;49289;51.670;5.624;2022-09-30T09:04:43;19.10;;;14.80;;
63193;SDS011;49289;51.670;5.624;2022-09-30T09:06:33;18.70;;;14.30;;
63193;SDS011;49289;51.670;5.624;2022-09-30T09:08:21;16.90;;;13.90;;
63193;SDS011;49289;51.670;5.624;2022-09-30T09:10:14;16.20;;;13.40;;
63193;SDS011;49289;51.670;5.624;2022-09-30T09:12:06;16.30;;;13.90;;
63193;SDS011;49289;51.670;5.624;2022-09-30T09:13:57;19.40;;;14.20;;
63193;SDS011;49289;51.670;5.624;2022-09-30T09:15:47;19.00;;;13.40;;
63193;SDS011;49289;51.670;5.624;2022-09-30T09:17:37;16.50;;;13.10;;
63193;SDS011;49289;51.670;5.624;2022-09-30T09:19:24;18.20;;;13.00;;
63193;SDS011;49289;51.670;5.624;2022-09-30T09:21:13;15.60;;;13.20;;
63193;SDS011;49289;51.670;5.624;2022-09-30T09:23:07;15.90;;;13.10;;
63193;SDS011;49289;51.670;5.624;2022-09-30T09:24:54;15.70;;;13.20;;
63193;SDS011;49289;51.670;5.624;2022-09-30T09:26:42;16.00;;;12.60;;
63193;SDS011;49289;51.670;5.624;2022-09-30T09:28:33;16.90;;;13.20;;
63193;SDS011;49289;51.670;5.624;2022-09-30T09:30:21;15.80;;;13.10;;
63193;SDS011;49289;51.670;5.624;2022-09-30T09:32:14;17.90;;;13.70;;
63193;SDS011;49289;51.670;5.624;2022-09-30T09:34:06;18.20;;;14.10;;
63193;SDS011;49289;51.670;5.624;2022-09-30T09:35:56;17.90;;;13.50;;
63193;SDS011;49289;51.670;5.624;2022-09-30T09:37:45;17.80;;;13.00;;
63193;SDS011;49289;51.670;5.624;2022-09-30T09:39:37;16.50;;;13.20;;
63193;SDS011;49289;51.670;5.624;2022-09-30T09:41:28;16.50;;;13.90;;
63193;SDS011;49289;51.670;5.624;2022-09-30T09:43:19;17.10;;;13.90;;
63193;SDS011;49289;51.670;5.624;2022-09-30T09:45:08;16.30;;;13.90;;
63193;SDS011;49289;51.670;5.624;2022-09-30T09:46:58;18.30;;;14.70;;
63193;SDS011;49289;51.670;5.624;2022-09-30T09:48:44;18.40;;;14.70;;
63193;SDS011;49289;51.670;5.624;2022-09-30T09:50:33;18.20;;;13.80;;
63193;SDS011;49289;51.670;5.624;2022-09-30T09:52:36;19.10;;;14.60;;
63193;SDS011;49289;51.670;5.624;2022-09-30T09:54:30;17.50;;;14.50;;
63193;SDS011;49289;51.670;5.624;2022-09-30T09:56:19;16.80;;;13.60;;
63193;SDS011;49289;51.670;5.624;2022-09-30T09:58:11;19.10;;;14.20;;
63193;SDS011;49289;51.670;5.624;2022-09-30T09:59:59;18.70;;;15.10;;
63193;SDS011;49289;51.670;5.624;2022-09-30T10:01:47;21.70;;;14.90;;
63193;SDS011;49289;51.670;5.624;2022-09-30T10:03:34;17.70;;;14.10;;
63193;SDS011;49289;51.670;5.624;2022-09-30T10:05:27;19.10;;;15.30;;
63193;SDS011;49289;51.670;5.624;2022-09-30T10:07:17;17.00;;;14.30;;
63193;SDS011;49289;51.670;5.624;2022-09-30T10:09:07;18.40;;;13.60;;
63193;SDS011;49289;51.670;5.624;2022-09-30T10:10:53;17.00;;;12.70;;
63193;SDS011;49289;51.670;5.624;2022-09-30T10:12:41;16.00;;;13.60;;
63193;SDS011;49289;51.670;5.624;2022-09-30T10:14:28;18.00;;;13.60;;
63193;SDS011;49289;51.670;5.624;2022-09-30T10:16:27;17.40;;;13.40;;
63193;SDS011;49289;51.670;5.624;2022-09-30T10:18:20;15.90;;;12.60;;
63193;SDS011;49289;51.670;5.624;2022-09-30T10:19:56;16.00;;;12.60;;
63193;SDS011;49289;51.670;5.624;2022-09-30T10:21:43;15.50;;;12.00;;
63193;SDS011;49289;51.670;5.624;2022-09-30T10:23:32;17.40;;;12.80;;
63193;SDS011;49289;51.670;5.624;2022-09-30T10:25:24;17.40;;;12.40;;
63193;SDS011;49289;51.670;5.624;2022-09-30T10:27:18;17.20;;;12.10;;
63193;SDS011;49289;51.670;5.624;2022-09-30T10:29:20;15.00;;;11.50;;
63193;SDS011;49289;51.670;5.624;2022-09-30T10:31:10;16.50;;;11.70;;
63193;SDS011;49289;51.670;5.624;2022-09-30T10:32:59;16.10;;;11.10;;
63193;SDS011;49289;51.670;5.624;2022-09-30T10:34:47;14.80;;;10.40;;
63193;SDS011;49289;51.670;5.624;2022-09-30T10:36:37;15.30;;;11.00;;
63193;SDS011;49289;51.670;5.624;2022-09-30T10:38:24;13.50;;;10.50;;